createdAt,value
2019-05-14T00:03:57.163Z,5.77
2019-05-14T00:09:02.154Z,6.10
2019-05-14T00:14:07.462Z,5.70
2019-05-14T00:19:12.103Z,6.10
2019-05-14T00:24:16.846Z,5.77
2019-05-14T00:29:22.069Z,5.80
2019-05-14T00:34:26.844Z,6.70
2019-05-14T00:39:32.012Z,6.20
2019-05-14T00:44:50.815Z,6.80
2019-05-14T00:49:43.128Z,6.40
2019-05-14T00:54:47.770Z,6.33
2019-05-14T00:59:52.512Z,6.73
2019-05-14T01:04:57.064Z,7.13
2019-05-14T01:10:01.799Z,7.43
2019-05-14T01:15:10.739Z,7.17
2019-05-14T01:20:14.149Z,7.53
2019-05-14T01:25:18.890Z,8.10
2019-05-14T01:30:23.484Z,8.43
2019-05-14T01:35:28.059Z,8.20
2019-05-14T01:40:32.634Z,8.80
2019-05-14T01:45:37.355Z,8.27
2019-05-14T01:50:41.895Z,8.40
2019-05-14T01:55:46.735Z,8.90
2019-05-14T02:00:52.340Z,8.10
2019-05-14T02:05:57.349Z,9.47
2019-05-14T02:11:02.102Z,9.37
2019-05-14T02:16:06.851Z,10.30
2019-05-14T02:21:11.820Z,9.40
2019-05-14T02:26:16.636Z,9.90
2019-05-14T02:31:21.380Z,9.70
2019-05-14T02:36:26.007Z,9.57
2019-05-14T02:41:30.649Z,9.73
2019-05-14T02:46:35.297Z,9.90
2019-05-14T02:51:39.932Z,10.50
2019-05-14T02:56:49.370Z,11.67
2019-05-14T03:01:52.830Z,11.27
2019-05-14T03:06:59.216Z,9.63
2019-05-14T03:12:03.721Z,10.90
2019-05-14T03:17:10.511Z,10.63
2019-05-14T03:22:14.958Z,10.27
2019-05-14T03:27:19.907Z,9.27
2019-05-14T03:32:24.851Z,10.30
2019-05-14T03:37:31.065Z,9.47
2019-05-14T03:42:36.077Z,8.60
2019-05-14T03:47:40.732Z,9.27
2019-05-14T03:52:45.359Z,9.20
2019-05-14T03:57:50.299Z,9.20
2019-05-14T04:02:55.164Z,9.60
2019-05-14T04:08:00.255Z,14.97
2019-05-14T04:13:05.051Z,26.43
2019-05-14T04:18:10.934Z,40.73
2019-05-14T04:23:19.848Z,37.07
2019-05-14T04:28:24.519Z,28.80
2019-05-14T04:33:30.234Z,22.47
2019-05-14T04:38:35.524Z,16.47
2019-05-14T04:43:40.495Z,16.70
2019-05-14T04:48:50.034Z,18.40
2019-05-14T04:53:54.097Z,15.67
2019-05-14T04:58:59.787Z,17.10
2019-05-14T05:04:04.772Z,15.47
2019-05-14T05:09:09.782Z,14.73
2019-05-14T05:14:14.571Z,13.93
2019-05-14T05:19:19.755Z,12.93
2019-05-14T05:24:24.564Z,15.17
2019-05-14T05:29:29.311Z,15.87
2019-05-14T05:34:34.055Z,16.70
2019-05-14T05:39:38.866Z,16.30
2019-05-14T05:44:43.643Z,15.83
2019-05-14T05:49:48.802Z,13.40
2019-05-14T05:54:53.765Z,13.67
2019-05-14T05:59:58.833Z,21.87
2019-05-14T06:05:04.463Z,18.37
2019-05-14T06:10:09.308Z,14.87
2019-05-14T06:15:14.393Z,18.07
2019-05-14T06:20:19.539Z,12.97
2019-05-14T06:25:24.423Z,10.17
2019-05-14T06:30:32.485Z,9.20
2019-05-14T06:35:39.379Z,8.83
2019-05-14T06:40:43.538Z,8.10
2019-05-14T06:45:49.568Z,7.73
2019-05-14T06:50:54.528Z,8.10
2019-05-14T06:55:59.162Z,6.33
2019-05-14T07:01:03.914Z,6.53
2019-05-14T07:06:08.983Z,5.70
2019-05-14T07:11:14.530Z,6.43
2019-05-14T07:16:20.001Z,6.03
2019-05-14T07:21:25.140Z,5.60
2019-05-14T07:26:31.009Z,5.57
2019-05-14T07:31:38.294Z,6.00
2019-05-14T07:36:41.927Z,6.40
2019-05-14T07:41:48.338Z,6.10
2019-05-14T07:46:52.953Z,5.10
2019-05-14T07:51:58.748Z,6.10
2019-05-14T07:57:03.683Z,6.20
2019-05-14T08:02:09.394Z,5.90
2019-05-14T08:07:14.386Z,6.33
2019-05-14T08:12:19.350Z,6.07
2019-05-14T08:17:24.180Z,5.80
2019-05-14T08:22:29.199Z,5.23
2019-05-14T08:27:34.077Z,5.90
2019-05-14T08:32:39.154Z,6.50
2019-05-14T08:37:43.984Z,6.27
2019-05-14T08:42:49.029Z,5.80
2019-05-14T08:47:54.694Z,5.50
2019-05-14T08:52:59.437Z,5.57
2019-05-14T08:58:04.154Z,5.17
2019-05-14T09:03:08.826Z,5.30
2019-05-14T09:08:13.462Z,5.77
2019-05-14T09:13:18.633Z,5.07
2019-05-14T09:18:23.328Z,5.17
2019-05-14T09:23:28.613Z,5.33
2019-05-14T09:28:33.791Z,5.50
2019-05-14T09:33:39.135Z,5.37
2019-05-14T09:38:45.564Z,5.73
2019-05-14T09:43:50.358Z,5.33
2019-05-14T09:48:55.002Z,5.63
2019-05-14T09:53:59.754Z,5.30
2019-05-14T09:59:05.134Z,5.23
2019-05-14T10:04:10.391Z,5.47
2019-05-14T10:09:15.468Z,6.07
2019-05-14T10:14:21.997Z,5.70
2019-05-14T10:19:29.316Z,5.80
2019-05-14T10:24:33.227Z,6.73
2019-05-14T10:29:39.331Z,7.30
2019-05-14T10:34:44.761Z,7.43
2019-05-14T10:39:50.454Z,5.97
2019-05-14T10:44:55.429Z,6.83
2019-05-14T10:50:02.174Z,6.00
2019-05-14T10:55:08.060Z,6.13
2019-05-14T11:00:13.094Z,6.07
2019-05-14T11:05:18.837Z,6.37
2019-05-14T11:10:23.703Z,6.63
2019-05-14T11:15:28.589Z,6.63
2019-05-14T11:20:33.312Z,7.40
2019-05-14T11:25:39.570Z,6.17
2019-05-14T11:30:44.315Z,6.97
2019-05-14T11:35:49.063Z,6.80
2019-05-14T11:40:54.562Z,10.57
2019-05-14T11:45:59.535Z,6.57
2019-05-14T11:51:04.233Z,6.07
2019-05-14T11:56:10.491Z,5.33
2019-05-14T12:01:15.442Z,6.50
2019-05-14T12:06:20.185Z,6.27
2019-05-14T12:11:28.952Z,6.27
2019-05-14T12:16:33.262Z,6.87
2019-05-14T12:21:39.756Z,7.50
2019-05-14T12:26:44.278Z,6.97
2019-05-14T12:31:50.697Z,6.23
2019-05-14T12:36:55.408Z,7.93
2019-05-14T12:42:00.694Z,10.20
2019-05-14T12:47:05.244Z,6.90
2019-05-14T12:52:24.593Z,6.53
2019-05-14T12:57:18.782Z,5.90
2019-05-14T13:02:22.714Z,5.90
2019-05-14T13:07:27.345Z,5.73
2019-05-14T13:12:32.096Z,6.17
2019-05-14T13:17:38.897Z,6.97
2019-05-14T13:22:46.236Z,6.17
2019-05-14T13:27:50.343Z,6.50
2019-05-14T13:32:55.067Z,6.67
2019-05-14T13:38:00.834Z,6.57
2019-05-14T13:43:05.468Z,6.10
2019-05-14T13:48:10.223Z,5.73
2019-05-14T13:53:14.868Z,7.50
2019-05-14T13:58:20.850Z,8.93
2019-05-14T14:03:28.936Z,5.80
2019-05-14T14:08:32.481Z,6.87
2019-05-14T14:13:39.096Z,6.03
2019-05-14T14:18:43.395Z,5.50
2019-05-14T14:23:49.480Z,6.13
2019-05-14T14:28:54.385Z,5.10
2019-05-14T14:34:01.151Z,5.40
2019-05-14T14:39:09.478Z,4.97
2019-05-14T14:44:13.564Z,7.30
2019-05-14T14:49:20.227Z,5.33
2019-05-14T14:54:28.665Z,5.87
2019-05-14T14:59:32.917Z,5.30
2019-05-14T15:04:39.553Z,4.33
2019-05-14T15:09:44.142Z,5.97
2019-05-14T15:14:49.912Z,5.87
2019-05-14T15:19:54.760Z,5.00
2019-05-14T15:24:59.498Z,5.40
2019-05-14T15:30:08.078Z,5.43
2019-05-14T15:35:13.719Z,10.37
2019-05-14T15:40:22.480Z,6.47
2019-05-14T15:45:28.772Z,6.60
2019-05-14T15:50:34.995Z,11.07
2019-05-14T15:55:40.762Z,6.20
2019-05-14T16:00:45.577Z,6.17
2019-05-14T16:05:50.505Z,6.47
2019-05-14T16:11:00.130Z,6.77
2019-05-14T16:16:03.325Z,7.07
2019-05-14T16:21:10.494Z,6.40
2019-05-14T16:26:15.166Z,6.97
2019-05-14T16:31:19.911Z,7.00
2019-05-14T16:36:24.764Z,6.40
2019-05-14T16:41:29.511Z,7.50
2019-05-14T16:46:38.503Z,7.87
2019-05-14T16:51:42.978Z,10.57
2019-05-14T16:56:48.341Z,11.30
2019-05-14T17:01:54.460Z,9.53
2019-05-14T17:07:02.321Z,10.07
2019-05-14T17:12:08.505Z,8.50
2019-05-14T17:17:13.476Z,8.23
2019-05-14T17:22:28.602Z,8.57
2019-05-14T17:27:28.381Z,7.90
2019-05-14T17:32:32.606Z,10.07
2019-05-14T17:37:39.404Z,20.33
2019-05-14T17:42:43.733Z,11.43
2019-05-14T17:47:49.075Z,11.00
2019-05-14T17:52:56.395Z,9.30
2019-05-14T17:58:01.054Z,11.70
2019-05-14T18:03:05.877Z,8.03
2019-05-14T18:08:11.006Z,7.50
2019-05-14T18:13:18.030Z,9.90
2019-05-14T18:18:24.756Z,8.80
2019-05-14T18:23:29.978Z,61.93
2019-05-14T18:28:34.716Z,9.33
2019-05-14T18:33:40.145Z,13.97
2019-05-14T18:38:45.029Z,9.33
2019-05-14T18:43:49.653Z,11.13
2019-05-14T18:48:54.824Z,11.43
2019-05-14T18:53:59.837Z,12.30
2019-05-14T18:59:04.566Z,12.27
2019-05-14T19:04:09.392Z,12.13
2019-05-14T19:09:14.231Z,13.17
2019-05-14T19:14:19.193Z,10.23
2019-05-14T19:19:24.259Z,11.10
2019-05-14T19:24:29.160Z,14.53
2019-05-14T19:29:34.016Z,10.83
2019-05-14T19:34:38.741Z,11.13
2019-05-14T19:39:44.020Z,12.70
2019-05-14T19:44:48.871Z,18.80
2019-05-14T19:49:54.519Z,12.10
2019-05-14T19:54:59.182Z,17.67
2019-05-14T20:00:05.555Z,13.47
2019-05-14T20:05:10.536Z,12.77
2019-05-14T20:10:16.083Z,19.07
2019-05-14T20:15:21.926Z,12.50
2019-05-14T20:20:28.836Z,13.33
2019-05-14T20:25:35.422Z,23.53
2019-05-14T20:30:40.938Z,39.03
2019-05-14T20:35:47.907Z,16.00
2019-05-14T20:40:52.594Z,13.97
2019-05-14T20:45:59.408Z,13.03
2019-05-14T20:51:03.614Z,13.70
2019-05-14T20:56:08.521Z,14.63
2019-05-14T21:01:14.228Z,14.73
2019-05-14T21:06:20.589Z,17.33
2019-05-14T21:11:25.253Z,15.33
2019-05-14T21:16:29.995Z,14.63
2019-05-14T21:21:34.738Z,25.03
2019-05-14T21:26:40.189Z,14.80
2019-05-14T21:31:45.148Z,14.53
2019-05-14T21:36:50.775Z,13.87
2019-05-14T21:41:55.558Z,14.50
2019-05-14T21:47:01.214Z,14.23
2019-05-14T21:52:05.967Z,25.70
2019-05-14T21:57:11.836Z,15.03
2019-05-14T22:02:24.321Z,15.27
2019-05-14T22:07:23.053Z,16.00
2019-05-14T22:12:28.262Z,20.13
2019-05-14T22:17:33.165Z,17.40
2019-05-14T22:22:39.547Z,16.47
2019-05-14T22:27:44.608Z,14.67
2019-05-14T22:32:50.372Z,14.27
2019-05-14T22:37:55.107Z,14.80
2019-05-14T22:43:00.398Z,14.90
2019-05-14T22:48:05.315Z,15.33
2019-05-14T22:53:09.950Z,14.37
2019-05-14T22:58:25.306Z,29.17
2019-05-14T23:03:21.230Z,18.40
2019-05-14T23:08:26.117Z,16.00
2019-05-14T23:13:31.896Z,19.10
2019-05-14T23:18:37.953Z,17.30
2019-05-14T23:23:42.811Z,23.67
2019-05-14T23:28:49.182Z,17.10
2019-05-14T23:33:53.732Z,17.03
2019-05-14T23:38:59.131Z,18.00
2019-05-14T23:44:04.042Z,18.30
2019-05-14T23:49:09.028Z,21.63
2019-05-14T23:54:14.984Z,15.47
2019-05-14T23:59:19.591Z,4.90
